createdAt,value
2019-04-19T00:01:28.821Z,8.93
2019-04-19T00:04:05.032Z,7.43
2019-04-19T00:07:10.627Z,4.37
2019-04-19T00:09:43.898Z,5.53
2019-04-19T00:12:18.030Z,4.80
2019-04-19T00:14:34.135Z,7.03
2019-04-19T00:17:06.276Z,5.47
2019-04-19T00:19:56.680Z,7.40
2019-04-19T00:22:24.974Z,6.30
2019-04-19T00:24:37.546Z,5.60
2019-04-19T00:27:07.738Z,6.53
2019-04-19T00:29:44.918Z,9.10
2019-04-19T00:32:24.080Z,6.57
2019-04-19T00:34:39.867Z,7.10
2019-04-19T00:37:10.007Z,4.90
2019-04-19T00:40:06.034Z,6.33
2019-04-19T00:42:48.391Z,5.93
2019-04-19T00:46:00.830Z,6.40
2019-04-19T00:48:29.719Z,5.27
2019-04-19T00:50:56.299Z,5.20
2019-04-19T00:53:25.216Z,8.50
2019-04-19T00:55:54.397Z,6.87
2019-04-19T00:58:21.716Z,6.20
2019-04-19T01:00:48.965Z,8.43
2019-04-19T01:03:27.423Z,5.33
2019-04-19T01:05:56.993Z,6.00
2019-04-19T01:08:23.232Z,5.77
2019-04-19T01:11:07.861Z,5.70
2019-04-19T01:13:39.871Z,5.30
2019-04-19T01:16:05.929Z,6.47
2019-04-19T01:18:36.713Z,6.77
2019-04-19T01:20:56.355Z,5.57
2019-04-19T01:23:26.906Z,5.17
2019-04-19T01:26:02.908Z,5.60
2019-04-19T01:28:29.345Z,5.80
2019-04-19T01:30:59.066Z,5.73
2019-04-19T01:33:37.343Z,5.53
2019-04-19T01:36:04.275Z,6.33
2019-04-19T01:38:40.907Z,6.43
2019-04-19T01:41:23.216Z,5.80
2019-04-19T01:44:14.474Z,4.57
2019-04-19T01:46:55.863Z,6.40
2019-04-19T01:49:48.598Z,6.20
2019-04-19T01:52:47.224Z,7.20
2019-04-19T01:55:04.829Z,4.23
2019-04-19T01:57:24.361Z,5.67
2019-04-19T01:59:57.570Z,4.93
2019-04-19T02:02:26.672Z,5.43
2019-04-19T02:05:00.672Z,5.50
2019-04-19T02:07:30.856Z,4.93
2019-04-19T02:10:12.424Z,6.93
2019-04-19T02:12:42.038Z,5.37
2019-04-19T02:15:06.434Z,6.20
2019-04-19T02:17:37.236Z,5.83
2019-04-19T02:20:08.139Z,5.07
2019-04-19T02:22:36.804Z,5.47
2019-04-19T02:25:12.684Z,5.10
2019-04-19T02:27:40.459Z,6.93
2019-04-19T02:30:15.875Z,8.60
2019-04-19T02:32:57.908Z,4.80
2019-04-19T02:35:29.485Z,6.73
2019-04-19T02:38:08.769Z,5.13
2019-04-19T02:43:07.356Z,5.43
2019-04-19T02:45:45.261Z,6.73
2019-04-19T02:48:22.925Z,7.50
2019-04-19T02:53:16.663Z,7.40
2019-04-19T02:55:54.535Z,5.20
2019-04-19T02:58:16.556Z,5.90
2019-04-19T03:03:27.267Z,5.80
2019-04-19T03:05:56.210Z,6.00
2019-04-19T03:08:10.490Z,7.53
2019-04-19T03:10:54.683Z,5.60
2019-04-19T03:13:25.604Z,5.80
2019-04-19T03:15:58.420Z,5.63
2019-04-19T03:18:29.060Z,5.80
2019-04-19T03:20:55.474Z,5.33
2019-04-19T03:23:25.986Z,5.23
2019-04-19T03:25:57.796Z,6.47
2019-04-19T03:28:26.134Z,5.43
2019-04-19T03:31:20.756Z,7.20
2019-04-19T03:36:05.418Z,5.57
2019-04-19T03:38:40.448Z,5.57
2019-04-19T03:41:26.903Z,6.37
2019-04-19T03:43:52.137Z,5.20
2019-04-19T03:46:18.962Z,5.07
2019-04-19T03:48:51.524Z,8.63
2019-04-19T03:51:23.654Z,7.23
2019-04-19T03:53:54.397Z,5.20
2019-04-19T03:56:30.440Z,6.07
2019-04-19T03:58:40.272Z,7.00
2019-04-19T04:01:10.727Z,5.70
2019-04-19T04:03:44.586Z,6.77
2019-04-19T04:06:13.555Z,5.70
2019-04-19T04:08:48.576Z,5.53
2019-04-19T04:11:31.935Z,6.17
2019-04-19T04:14:21.756Z,6.80
2019-04-19T04:17:00.233Z,8.00
2019-04-19T04:19:31.249Z,7.20
2019-04-19T04:22:00.965Z,11.03
2019-04-19T04:24:37.769Z,8.80
2019-04-19T04:27:09.778Z,6.40
2019-04-19T04:29:38.838Z,7.50
2019-04-19T04:32:12.730Z,6.27
2019-04-19T04:34:45.734Z,5.83
2019-04-19T04:37:20.550Z,5.80
2019-04-19T04:39:36.880Z,9.30
2019-04-19T04:42:16.456Z,7.20
2019-04-19T04:45:03.690Z,6.13
2019-04-19T04:47:35.400Z,7.60
2019-04-19T04:50:15.720Z,7.60
2019-04-19T04:52:45.562Z,6.33
2019-04-19T04:55:32.533Z,7.50
2019-04-19T04:58:05.278Z,7.50
2019-04-19T05:00:41.504Z,5.20
2019-04-19T05:03:29.318Z,5.73
2019-04-19T05:05:56.965Z,6.57
2019-04-19T05:08:24.489Z,4.80
2019-04-19T05:10:56.899Z,4.87
2019-04-19T05:13:46.932Z,5.57
2019-04-19T05:15:58.117Z,7.20
2019-04-19T05:18:30.302Z,6.70
2019-04-19T05:20:55.708Z,4.97
2019-04-19T05:23:28.565Z,6.10
2019-04-19T05:26:02.785Z,3.50
2019-04-19T05:28:33.301Z,7.40
2019-04-19T05:30:54.958Z,6.73
2019-04-19T05:33:29.702Z,5.50
2019-04-19T05:36:08.356Z,6.63
2019-04-19T05:39:08.016Z,7.17
2019-04-19T05:41:56.585Z,5.20
2019-04-19T05:44:41.495Z,5.40
2019-04-19T05:47:11.627Z,6.47
2019-04-19T05:49:40.525Z,4.80
2019-04-19T05:52:08.350Z,6.30
2019-04-19T05:54:22.211Z,6.87
2019-04-19T05:56:58.343Z,5.10
2019-04-19T05:59:36.782Z,5.47
2019-04-19T06:02:05.459Z,5.33
2019-04-19T06:04:43.722Z,10.30
2019-04-19T06:07:15.894Z,6.60
2019-04-19T06:09:28.431Z,6.00
2019-04-19T06:11:58.128Z,5.70
2019-04-19T06:14:55.017Z,5.50
2019-04-19T06:17:41.032Z,6.97
2019-04-19T06:20:11.097Z,6.47
2019-04-19T06:22:46.103Z,6.33
2019-04-19T06:25:12.286Z,8.30
2019-04-19T06:28:02.709Z,8.70
2019-04-19T06:30:20.369Z,9.10
2019-04-19T06:32:51.743Z,6.60
2019-04-19T06:35:15.310Z,6.77
2019-04-19T06:37:34.171Z,6.17
2019-04-19T06:40:12.843Z,7.07
2019-04-19T06:42:41.094Z,6.93
2019-04-19T06:45:22.988Z,8.17
2019-04-19T06:47:44.827Z,6.67
2019-04-19T06:50:08.798Z,5.70
2019-04-19T06:52:40.001Z,6.33
2019-04-19T06:55:16.578Z,7.87
2019-04-19T06:57:51.113Z,7.37
2019-04-19T07:00:29.607Z,6.73
2019-04-19T07:02:45.439Z,6.53
2019-04-19T07:05:27.553Z,5.30
2019-04-19T07:08:08.892Z,4.87
2019-04-19T07:10:45.467Z,6.27
2019-04-19T07:13:09.016Z,5.97
2019-04-19T07:15:51.339Z,5.83
2019-04-19T07:18:07.510Z,6.67
2019-04-19T07:20:36.012Z,10.63
2019-04-19T07:23:06.860Z,9.13
2019-04-19T07:25:46.810Z,5.80
2019-04-19T07:28:03.897Z,5.43
2019-04-19T07:30:26.659Z,6.80
2019-04-19T07:33:03.421Z,5.03
2019-04-19T07:35:47.280Z,7.17
2019-04-19T07:38:25.224Z,5.40
2019-04-19T07:40:48.670Z,6.93
2019-04-19T07:43:17.620Z,11.33
2019-04-19T07:46:08.463Z,5.63
2019-04-19T07:48:27.445Z,5.43
2019-04-19T07:51:04.863Z,4.37
2019-04-19T07:53:35.225Z,5.00
2019-04-19T07:58:58.730Z,6.20
2019-04-19T08:04:11.996Z,4.47
2019-04-19T08:06:37.648Z,5.10
2019-04-19T08:11:38.136Z,4.87
2019-04-19T08:28:47.561Z,4.30
2019-04-19T08:31:14.526Z,4.13
2019-04-19T08:33:44.692Z,5.60
2019-04-19T08:36:16.631Z,3.80
2019-04-19T08:39:03.192Z,7.20
2019-04-19T08:41:26.321Z,3.73
2019-04-19T08:44:05.009Z,4.20
2019-04-19T08:46:28.200Z,3.93
2019-04-19T08:49:33.290Z,3.10
2019-04-19T08:52:23.050Z,3.90
2019-04-19T08:55:03.283Z,3.50
2019-04-19T08:57:21.786Z,3.73
2019-04-19T09:00:18.826Z,3.93
2019-04-19T09:02:36.796Z,4.67
2019-04-19T09:05:09.334Z,5.70
2019-04-19T09:10:22.070Z,5.03
2019-04-19T09:12:39.801Z,3.23
2019-04-19T09:15:12.838Z,3.80
2019-04-19T09:18:01.190Z,7.70
2019-04-19T09:20:28.124Z,3.37
2019-04-19T09:23:00.874Z,4.17
2019-04-19T09:25:28.923Z,3.70
2019-04-19T09:28:16.096Z,3.67
2019-04-19T09:30:43.782Z,7.00
2019-04-19T09:33:02.109Z,5.70
2019-04-19T09:35:31.024Z,3.60
2019-04-19T09:38:11.393Z,3.50
2019-04-19T09:40:41.446Z,3.70
2019-04-19T09:43:21.314Z,3.10
2019-04-19T09:45:34.066Z,3.50
2019-04-19T09:48:03.486Z,3.17
2019-04-19T09:50:53.910Z,3.70
2019-04-19T09:53:32.057Z,3.50
2019-04-19T09:55:57.731Z,4.87
2019-04-19T09:58:27.645Z,2.60
2019-04-19T10:00:38.612Z,2.30
2019-04-19T10:03:21.192Z,3.00
2019-04-19T10:05:39.038Z,2.40
2019-04-19T10:08:09.430Z,3.00
2019-04-19T10:10:38.898Z,2.13
2019-04-19T10:13:08.241Z,3.53
2019-04-19T10:15:56.586Z,3.27
2019-04-19T10:18:25.948Z,3.90
2019-04-19T10:21:19.333Z,2.10
2019-04-19T10:23:43.511Z,4.63
2019-04-19T10:26:22.282Z,2.80
2019-04-19T10:28:52.791Z,2.93
2019-04-19T10:31:35.666Z,2.60
2019-04-19T10:34:06.248Z,2.70
2019-04-19T10:36:36.444Z,2.70
2019-04-19T10:39:11.916Z,2.50
2019-04-19T10:41:41.315Z,3.20
2019-04-19T10:44:16.551Z,2.60
2019-04-19T10:46:42.733Z,3.23
2019-04-19T10:49:18.284Z,2.60
2019-04-19T10:51:48.713Z,2.90
2019-04-19T10:54:18.266Z,4.50
2019-04-19T10:56:54.979Z,3.13
2019-04-19T10:59:24.692Z,2.50
2019-04-19T11:01:54.184Z,2.60
2019-04-19T11:04:24.636Z,2.33
2019-04-19T11:06:55.714Z,4.67
2019-04-19T11:09:25.078Z,3.73
2019-04-19T11:11:55.352Z,2.33
2019-04-19T11:14:25.908Z,3.03
2019-04-19T11:16:55.664Z,3.20
2019-04-19T11:19:44.591Z,2.53
2019-04-19T11:21:56.482Z,3.20
2019-04-19T11:24:25.836Z,3.30
2019-04-19T11:26:55.230Z,2.47
2019-04-19T11:29:25.919Z,3.10
2019-04-19T11:32:17.890Z,2.77
2019-04-19T11:34:49.777Z,2.70
2019-04-19T11:37:20.107Z,2.83
2019-04-19T11:39:50.858Z,2.73
2019-04-19T11:42:21.283Z,2.50
2019-04-19T11:44:51.914Z,3.03
2019-04-19T11:47:21.359Z,2.93
2019-04-19T11:49:51.374Z,5.03
2019-04-19T11:52:30.054Z,2.73
2019-04-19T11:55:01.506Z,2.50
2019-04-19T11:57:40.887Z,3.43
2019-04-19T12:00:38.530Z,2.60
2019-04-19T12:03:09.819Z,3.17
2019-04-19T12:05:40.031Z,3.20
2019-04-19T12:08:10.569Z,2.70
2019-04-19T12:10:39.967Z,3.30
2019-04-19T12:13:09.414Z,3.33
2019-04-19T12:15:39.951Z,3.80
2019-04-19T12:18:10.363Z,3.10
2019-04-19T12:20:39.811Z,2.90
2019-04-19T12:23:09.684Z,2.83
2019-04-19T12:25:39.564Z,3.20
2019-04-19T12:28:09.935Z,2.67
2019-04-19T12:30:46.225Z,3.37
2019-04-19T12:33:11.238Z,3.97
2019-04-19T12:35:41.254Z,3.70
2019-04-19T12:38:10.665Z,4.37
2019-04-19T12:40:47.971Z,3.20
2019-04-19T12:43:17.974Z,2.90
2019-04-19T12:45:51.937Z,7.10
2019-04-19T12:48:19.636Z,3.50
2019-04-19T12:51:08.133Z,3.23
2019-04-19T12:53:37.466Z,3.10
2019-04-19T12:56:08.204Z,3.30
2019-04-19T12:58:37.961Z,3.43
2019-04-19T13:01:14.226Z,3.60
2019-04-19T13:04:02.374Z,4.43
2019-04-19T13:06:33.725Z,2.70
2019-04-19T13:09:03.711Z,3.17
2019-04-19T13:11:33.088Z,3.00
2019-04-19T13:14:03.647Z,2.97
2019-04-19T13:16:34.460Z,3.27
2019-04-19T13:19:03.958Z,4.33
2019-04-19T13:21:34.357Z,3.30
2019-04-19T13:24:04.525Z,3.77
2019-04-19T13:26:33.920Z,3.20
2019-04-19T13:29:03.495Z,3.47
2019-04-19T13:31:32.835Z,2.93
2019-04-19T13:34:02.921Z,3.23
2019-04-19T13:36:45.149Z,4.70
2019-04-19T13:39:29.977Z,3.47
2019-04-19T13:42:03.663Z,5.70
2019-04-19T13:44:33.007Z,3.83
2019-04-19T13:47:02.543Z,5.63
2019-04-19T13:49:32.691Z,6.00
2019-04-19T13:52:02.958Z,4.13
2019-04-19T13:54:32.615Z,3.60
2019-04-19T13:57:02.011Z,5.13
2019-04-19T13:59:42.638Z,3.10
2019-04-19T14:02:02.379Z,5.40
2019-04-19T14:04:31.772Z,4.33
2019-04-19T14:07:02.423Z,3.40
2019-04-19T14:09:33.601Z,4.27
2019-04-19T14:12:04.782Z,3.40
2019-04-19T14:14:34.922Z,3.30
2019-04-19T14:17:04.441Z,5.20
2019-04-19T14:19:34.478Z,4.30
2019-04-19T14:22:04.772Z,3.13
2019-04-19T14:24:35.500Z,4.57
2019-04-19T14:27:05.829Z,4.00
2019-04-19T14:29:35.439Z,3.67
2019-04-19T14:32:05.366Z,3.63
2019-04-19T14:34:35.329Z,3.30
2019-04-19T14:37:05.034Z,4.43
2019-04-19T14:39:34.502Z,4.40
2019-04-19T14:42:03.856Z,3.17
2019-04-19T14:44:33.658Z,5.47
2019-04-19T14:47:03.178Z,3.70
2019-04-19T14:49:32.739Z,4.47
2019-04-19T14:52:03.592Z,4.10
2019-04-19T14:54:33.151Z,4.90
2019-04-19T14:57:03.026Z,3.57
2019-04-19T14:59:33.215Z,3.90
2019-04-19T15:02:11.059Z,5.10
2019-04-19T15:04:44.735Z,4.27
2019-04-19T15:07:14.492Z,5.40
2019-04-19T15:09:43.942Z,4.30
2019-04-19T15:12:13.300Z,4.93
2019-04-19T15:14:42.727Z,4.17
2019-04-19T15:17:12.071Z,4.70
2019-04-19T15:19:41.882Z,4.30
2019-04-19T15:22:12.304Z,4.83
2019-04-19T15:24:41.783Z,4.03
2019-04-19T15:27:11.130Z,4.67
2019-04-19T15:29:41.029Z,5.60
2019-04-19T15:32:10.622Z,4.50
2019-04-19T15:34:40.086Z,4.73
2019-04-19T15:37:09.637Z,4.33
2019-04-19T15:39:39.907Z,4.33
2019-04-19T15:42:10.647Z,3.90
2019-04-19T15:44:40.475Z,4.43
2019-04-19T15:47:10.713Z,4.80
2019-04-19T15:49:40.159Z,4.23
2019-04-19T15:52:10.187Z,3.87
2019-04-19T15:54:39.587Z,3.47
2019-04-19T15:57:10.250Z,4.70
2019-04-19T15:59:40.980Z,4.53
2019-04-19T16:02:36.044Z,4.40
2019-04-19T16:05:15.729Z,4.00
2019-04-19T16:08:06.003Z,4.50
2019-04-19T16:10:52.846Z,4.83
2019-04-19T16:13:23.565Z,6.00
2019-04-19T16:15:54.045Z,7.67
2019-04-19T16:18:24.415Z,3.90
2019-04-19T16:20:54.144Z,4.10
2019-04-19T16:23:23.888Z,5.50
2019-04-19T16:25:53.395Z,4.17
2019-04-19T16:28:23.395Z,3.83
2019-04-19T16:30:52.899Z,6.33
2019-04-19T16:33:22.239Z,4.17
2019-04-19T16:35:52.256Z,4.87
2019-04-19T16:38:21.951Z,4.70
2019-04-19T16:40:52.498Z,4.23
2019-04-19T16:43:21.906Z,3.83
2019-04-19T16:46:02.245Z,4.17
2019-04-19T16:48:22.268Z,4.43
2019-04-19T16:50:52.498Z,3.83
2019-04-19T16:53:21.980Z,4.40
2019-04-19T16:55:51.898Z,4.60
2019-04-19T16:58:21.337Z,5.13
2019-04-19T17:00:50.707Z,3.40
2019-04-19T17:03:21.497Z,4.13
2019-04-19T17:05:53.893Z,4.67
2019-04-19T17:08:22.115Z,3.83
2019-04-19T17:10:51.670Z,4.47
2019-04-19T17:13:22.339Z,6.00
2019-04-19T17:16:04.810Z,4.30
2019-04-19T17:18:54.706Z,4.87
2019-04-19T17:21:25.980Z,3.70
2019-04-19T17:23:55.417Z,3.90
2019-04-19T17:26:24.959Z,5.57
2019-04-19T17:28:54.853Z,4.73
2019-04-19T17:31:24.452Z,4.70
2019-04-19T17:33:54.103Z,4.57
2019-04-19T17:36:24.208Z,3.77
2019-04-19T17:38:56.579Z,4.53
2019-04-19T17:41:24.994Z,3.40
2019-04-19T17:43:55.483Z,4.27
2019-04-19T17:46:24.943Z,4.10
2019-04-19T17:48:54.845Z,3.77
2019-04-19T17:51:24.930Z,4.27
2019-04-19T17:53:54.432Z,4.40
2019-04-19T17:56:23.788Z,5.20
2019-04-19T17:58:54.090Z,6.60
2019-04-19T18:01:24.299Z,3.97
2019-04-19T18:03:56.116Z,3.47
2019-04-19T18:06:25.900Z,4.30
2019-04-19T18:09:02.193Z,3.73
2019-04-19T18:11:30.108Z,6.73
2019-04-19T18:13:57.377Z,4.10
2019-04-19T18:16:26.906Z,6.80
2019-04-19T18:18:58.687Z,5.60
2019-04-19T18:21:30.823Z,4.00
2019-04-19T18:24:06.137Z,4.13
2019-04-19T18:26:31.952Z,4.13
2019-04-19T18:29:01.018Z,4.80
2019-04-19T18:31:37.559Z,4.17
2019-04-19T18:34:06.744Z,4.40
2019-04-19T18:36:32.658Z,5.53
2019-04-19T18:39:02.312Z,3.33
2019-04-19T18:41:31.655Z,3.80
2019-04-19T18:44:13.589Z,4.90
2019-04-19T18:46:33.175Z,4.03
2019-04-19T18:49:03.462Z,4.90
2019-04-19T18:51:38.718Z,8.63
2019-04-19T18:54:14.442Z,7.90
2019-04-19T18:56:36.116Z,3.60
2019-04-19T18:59:12.102Z,5.27
2019-04-19T19:01:39.666Z,5.50
2019-04-19T19:04:16.339Z,4.30
2019-04-19T19:06:43.080Z,3.93
2019-04-19T19:09:12.807Z,5.47
2019-04-19T19:11:43.289Z,4.60
2019-04-19T19:14:15.120Z,4.03
2019-04-19T19:16:43.627Z,4.20
2019-04-19T19:19:16.436Z,4.90
2019-04-19T19:21:47.303Z,4.87
2019-04-19T19:24:30.399Z,4.43
2019-04-19T19:26:59.823Z,4.53
2019-04-19T19:29:18.441Z,3.90
2019-04-19T19:31:48.030Z,3.90
2019-04-19T19:34:22.473Z,3.83
2019-04-19T19:36:52.102Z,5.30
2019-04-19T19:39:27.425Z,4.90
2019-04-19T19:44:37.561Z,4.23
2019-04-19T19:47:42.524Z,5.53
2019-04-19T19:50:15.142Z,4.37
2019-04-19T19:52:31.838Z,4.37
2019-04-19T19:55:09.162Z,4.40
2019-04-19T19:57:35.345Z,4.67
2019-04-19T20:00:04.506Z,5.23
2019-04-19T20:02:39.835Z,4.67
2019-04-19T20:04:53.384Z,4.63
2019-04-19T20:07:25.503Z,5.60
2019-04-19T20:09:56.142Z,4.67
2019-04-19T20:12:29.341Z,7.60
2019-04-19T20:14:59.752Z,5.97
2019-04-19T20:17:27.185Z,6.03
2019-04-19T20:19:56.542Z,5.10
2019-04-19T20:22:28.739Z,4.53
2019-04-19T20:25:07.337Z,5.73
2019-04-19T20:27:36.563Z,4.73
2019-04-19T20:30:02.849Z,4.70
2019-04-19T20:32:30.485Z,4.80
2019-04-19T20:35:05.691Z,4.63
2019-04-19T20:37:31.002Z,4.03
2019-04-19T20:40:06.177Z,4.27
2019-04-19T20:42:55.121Z,4.90
2019-04-19T20:45:07.359Z,5.70
2019-04-19T20:47:35.134Z,7.10
2019-04-19T20:50:14.056Z,7.27
2019-04-19T20:52:48.954Z,5.37
2019-04-19T20:55:25.086Z,6.37
2019-04-19T20:58:13.802Z,5.90
2019-04-19T21:00:38.548Z,5.87
2019-04-19T21:03:08.003Z,6.50
2019-04-19T21:05:42.532Z,8.93
2019-04-19T21:08:11.017Z,6.77
2019-04-19T21:10:50.046Z,6.30
2019-04-19T21:13:12.828Z,5.80
2019-04-19T21:15:43.301Z,5.27
2019-04-19T21:18:16.908Z,7.90
2019-04-19T21:20:44.709Z,5.90
2019-04-19T21:23:22.004Z,6.13
2019-04-19T21:25:51.988Z,5.03
2019-04-19T21:28:16.766Z,5.90
2019-04-19T21:30:51.705Z,5.40
2019-04-19T21:33:18.860Z,5.70
2019-04-19T21:35:56.719Z,5.23
2019-04-19T21:38:22.829Z,7.40
2019-04-19T21:40:50.343Z,5.20
2019-04-19T21:43:21.255Z,6.53
2019-04-19T21:45:54.484Z,5.83
2019-04-19T21:48:27.129Z,5.93
2019-04-19T21:50:54.111Z,7.43
2019-04-19T21:53:24.917Z,6.30
2019-04-19T21:56:02.083Z,6.27
2019-04-19T21:58:25.667Z,7.33
2019-04-19T22:01:08.144Z,6.37
2019-04-19T22:03:32.606Z,5.67
2019-04-19T22:06:11.710Z,5.90
2019-04-19T22:08:36.997Z,6.27
2019-04-19T22:11:04.501Z,6.27
2019-04-19T22:13:40.765Z,5.60
2019-04-19T22:16:05.781Z,5.20
2019-04-19T22:18:42.292Z,5.33
2019-04-19T22:21:07.120Z,5.40
2019-04-19T22:23:42.917Z,6.67
2019-04-19T22:26:18.079Z,6.27
2019-04-19T22:28:39.542Z,6.67
2019-04-19T22:31:10.692Z,6.43
2019-04-19T22:33:40.671Z,5.83
2019-04-19T22:36:10.740Z,5.50
2019-04-19T22:38:43.570Z,7.60
2019-04-19T22:41:13.866Z,6.03
2019-04-19T22:43:42.703Z,6.83
2019-04-19T22:46:14.068Z,6.23
2019-04-19T22:48:44.560Z,6.27
2019-04-19T22:51:17.247Z,8.00
2019-04-19T22:53:46.335Z,8.00
2019-04-19T22:56:22.598Z,6.13
2019-04-19T22:58:47.394Z,5.93
2019-04-19T23:01:35.934Z,7.80
2019-04-19T23:04:13.114Z,6.60
2019-04-19T23:06:38.600Z,6.60
2019-04-19T23:09:10.682Z,7.47
2019-04-19T23:11:39.573Z,9.17
2019-04-19T23:14:09.456Z,9.57
2019-04-19T23:16:43.714Z,5.87
2019-04-19T23:19:13.214Z,6.13
2019-04-19T23:21:47.429Z,5.53
2019-04-19T23:24:15.024Z,5.37
2019-04-19T23:27:02.195Z,9.60
2019-04-19T23:29:20.647Z,6.83
2019-04-19T23:31:49.134Z,6.90
2019-04-19T23:34:16.791Z,7.93
2019-04-19T23:36:49.856Z,6.97
2019-04-19T23:39:17.373Z,7.37
2019-04-19T23:41:46.914Z,10.23
2019-04-19T23:44:19.810Z,8.80
2019-04-19T23:46:47.537Z,7.10
2019-04-19T23:49:18.894Z,6.33
2019-04-19T23:51:49.341Z,9.30
2019-04-19T23:54:23.673Z,7.00
2019-04-19T23:57:00.489Z,5.93
2019-04-19T23:59:22.729Z,5.30
